Airfield :
LOGIN :

Register | Disclaimer

   EN    FR    IT 

 










Legend :    VFR   Marginal VFR   IFR   Intensive IFR   Very Intensive IFR
Visi :
Ceiling :
>= 8 km
>= 3000ft
5 to 8 km
1000 to 3000 ft
1500m to 5 km
500 to 1000 ft
800 to 1500m
200 to 500 ft
< 800m
< 200 ft
Symbols :   Thunderstorms  Fog  Heavy snow  Heavy precipitations  Wind > 20 kt
SIGMETs :     Misc.  Thunderstorms  Icing  Turbulence  Mountain Waves  Volcanic Ashes






- Airport Elevation : 93 ft
- IATA code : XRY


LEJR - Jerez

CURRENT METAR :
  • 271730Z 27003KT 9999 FEW025 14/10 Q1026

EXPIRED METARs :
  • 271700Z 29005KT 260V320 9999 FEW025 15/10 Q1026
  • 271630Z 29004KT 260V320 9999 FEW025 16/11 Q1025
  • 271600Z 26004KT 230V350 9999 FEW020 16/10 Q1025
  • 271530Z 31005KT 280V350 9999 FEW020 16/10 Q1026
  • 271500Z 31005KT 270V340 9999 FEW020 16/10 Q1026

TAF TAF LEJR
Valid from the 27 at 18:00 until the 28 at 18:00 UTC


271700Z 2718/2818 VRB03KT 9999 SCT020 BKN040 TX18/2814Z TN06/2806Z
PROB40
TEMPO 2722/2808 4000 BR BKN014
PROB30
TEMPO 2801/2807 0600 FG VV002



MET'MAP, your aeronautical weather chart ! - Copyright ORBIFLY December 2007 - Disclaimer

ORBIFLY MET'MAP TEAM :

Programming & Development : Alexandra Zaïnal
Concept & original design : Baudouin d'Aumeries
Assistance for programming : Marc-Olivier Méhu
Technical & hardware support : Manuel Goepfert

Contact : metmap@orbifly.com




SOURCES & CREDITS :

   NOAA